Aviation Digital Data Service (ADDS)

Output produced by METARs form (0740 UTC 24 May 2018)
found at http://www.aviationweather.gov/adds/metars/
 
DIBK 240600Z 00000KT 8000 NSC 22/22 Q1015 NOSIG
TAF DIBK 240500Z 2406/2506 20004KT 9999 SCT013 
     TEMPO 2416/2422 TS BKN013 FEW025CB
       
DIAP 240730Z 16003KT 9999 SCT011 29/26 Q1013 NOSIG
TAF DIAP 240500Z 2406/2512 18005KT 9999 SCT012 
     TEMPO 2416/2420 BKN012
       
TAF DIYO 240500Z 2406/2506 20004KT 9999 SCT013 
     TEMPO 2416/2422 TS BKN013 FEW025CB